sensor_id;sensor_type;location;lat;lon;timestamp;P1;durP1;ratioP1;P2;durP2;ratioP2
57746;SDS011;43580;44.014;20.466;2023-05-10T00:00:08;8.93;;;5.20;;
57746;SDS011;43580;44.014;20.466;2023-05-10T00:02:34;14.27;;;7.43;;
57746;SDS011;43580;44.014;20.466;2023-05-10T00:05:01;9.00;;;5.80;;
57746;SDS011;43580;44.014;20.466;2023-05-10T00:07:29;8.70;;;6.13;;
57746;SDS011;43580;44.014;20.466;2023-05-10T00:09:55;9.13;;;6.28;;
57746;SDS011;43580;44.014;20.466;2023-05-10T00:12:21;9.77;;;6.78;;
57746;SDS011;43580;44.014;20.466;2023-05-10T00:14:49;9.15;;;6.15;;
57746;SDS011;43580;44.014;20.466;2023-05-10T00:17:15;12.50;;;5.70;;
57746;SDS011;43580;44.014;20.466;2023-05-10T00:19:44;11.73;;;6.72;;
57746;SDS011;43580;44.014;20.466;2023-05-10T00:22:10;7.63;;;5.90;;
57746;SDS011;43580;44.014;20.466;2023-05-10T00:24:36;9.02;;;6.45;;
57746;SDS011;43580;44.014;20.466;2023-05-10T00:27:05;10.07;;;6.35;;
57746;SDS011;43580;44.014;20.466;2023-05-10T00:29:31;8.85;;;5.88;;
57746;SDS011;43580;44.014;20.466;2023-05-10T00:31:58;8.63;;;5.65;;
57746;SDS011;43580;44.014;20.466;2023-05-10T00:34:27;8.95;;;6.45;;
57746;SDS011;43580;44.014;20.466;2023-05-10T00:36:55;11.45;;;8.88;;
57746;SDS011;43580;44.014;20.466;2023-05-10T00:39:31;8.45;;;6.85;;
57746;SDS011;43580;44.014;20.466;2023-05-10T00:41:57;10.07;;;6.85;;
57746;SDS011;43580;44.014;20.466;2023-05-10T00:44:24;13.52;;;7.28;;
57746;SDS011;43580;44.014;20.466;2023-05-10T00:46:50;13.00;;;8.23;;
57746;SDS011;43580;44.014;20.466;2023-05-10T00:49:16;9.02;;;6.13;;
57746;SDS011;43580;44.014;20.466;2023-05-10T00:51:43;10.73;;;7.25;;
57746;SDS011;43580;44.014;20.466;2023-05-10T00:54:10;12.35;;;8.57;;
57746;SDS011;43580;44.014;20.466;2023-05-10T00:56:37;17.30;;;12.02;;
57746;SDS011;43580;44.014;20.466;2023-05-10T00:59:03;10.75;;;7.22;;
57746;SDS011;43580;44.014;20.466;2023-05-10T01:01:29;12.18;;;7.05;;
57746;SDS011;43580;44.014;20.466;2023-05-10T01:03:56;15.95;;;11.77;;
57746;SDS011;43580;44.014;20.466;2023-05-10T01:06:23;10.90;;;6.50;;
57746;SDS011;43580;44.014;20.466;2023-05-10T01:08:49;8.68;;;6.07;;
57746;SDS011;43580;44.014;20.466;2023-05-10T01:11:15;10.07;;;5.95;;
57746;SDS011;43580;44.014;20.466;2023-05-10T01:13:41;9.02;;;6.13;;
57746;SDS011;43580;44.014;20.466;2023-05-10T01:16:08;18.63;;;7.45;;
57746;SDS011;43580;44.014;20.466;2023-05-10T01:18:35;9.77;;;6.50;;
57746;SDS011;43580;44.014;20.466;2023-05-10T01:31:40;14.60;;;8.80;;
57746;SDS011;43580;44.014;20.466;2023-05-10T01:34:09;10.23;;;6.90;;
57746;SDS011;43580;44.014;20.466;2023-05-10T01:39:46;9.75;;;6.70;;
57746;SDS011;43580;44.014;20.466;2023-05-10T01:42:14;10.77;;;6.80;;
57746;SDS011;43580;44.014;20.466;2023-05-10T01:49:53;11.02;;;5.93;;
57746;SDS011;43580;44.014;20.466;2023-05-10T01:52:25;15.10;;;8.63;;
57746;SDS011;43580;44.014;20.466;2023-05-10T01:54:55;9.40;;;5.70;;
57746;SDS011;43580;44.014;20.466;2023-05-10T01:57:32;10.23;;;6.90;;
57746;SDS011;43580;44.014;20.466;2023-05-10T01:59:58;13.60;;;7.38;;
57746;SDS011;43580;44.014;20.466;2023-05-10T02:02:25;11.13;;;7.30;;
57746;SDS011;43580;44.014;20.466;2023-05-10T02:04:53;16.17;;;7.90;;
57746;SDS011;43580;44.014;20.466;2023-05-10T02:07:22;12.93;;;8.43;;
57746;SDS011;43580;44.014;20.466;2023-05-10T02:09:49;13.02;;;8.32;;
57746;SDS011;43580;44.014;20.466;2023-05-10T02:12:18;11.05;;;7.78;;
57746;SDS011;43580;44.014;20.466;2023-05-10T02:14:49;13.13;;;8.25;;
57746;SDS011;43580;44.014;20.466;2023-05-10T02:17:16;10.07;;;6.90;;
57746;SDS011;43580;44.014;20.466;2023-05-10T02:19:43;12.50;;;7.03;;
57746;SDS011;43580;44.014;20.466;2023-05-10T02:22:10;19.08;;;8.77;;
57746;SDS011;43580;44.014;20.466;2023-05-10T02:24:37;11.43;;;7.07;;
57746;SDS011;43580;44.014;20.466;2023-05-10T02:27:06;10.57;;;6.55;;
57746;SDS011;43580;44.014;20.466;2023-05-10T02:29:33;14.07;;;7.00;;
57746;SDS011;43580;44.014;20.466;2023-05-10T02:32:00;12.50;;;8.13;;
57746;SDS011;43580;44.014;20.466;2023-05-10T02:34:26;10.38;;;6.63;;
57746;SDS011;43580;44.014;20.466;2023-05-10T02:36:53;11.40;;;6.35;;
57746;SDS011;43580;44.014;20.466;2023-05-10T02:39:23;8.85;;;6.65;;
57746;SDS011;43580;44.014;20.466;2023-05-10T02:41:50;8.43;;;6.25;;
57746;SDS011;43580;44.014;20.466;2023-05-10T02:44:17;9.30;;;6.00;;
57746;SDS011;43580;44.014;20.466;2023-05-10T02:46:44;8.95;;;6.18;;
57746;SDS011;43580;44.014;20.466;2023-05-10T02:49:11;9.00;;;5.90;;
57746;SDS011;43580;44.014;20.466;2023-05-10T02:51:40;9.75;;;6.15;;
57746;SDS011;43580;44.014;20.466;2023-05-10T02:54:09;8.73;;;6.13;;
57746;SDS011;43580;44.014;20.466;2023-05-10T02:56:37;9.70;;;5.80;;
57746;SDS011;43580;44.014;20.466;2023-05-10T02:59:06;11.80;;;6.72;;
57746;SDS011;43580;44.014;20.466;2023-05-10T03:01:32;12.68;;;6.95;;
57746;SDS011;43580;44.014;20.466;2023-05-10T03:03:58;12.35;;;7.47;;
57746;SDS011;43580;44.014;20.466;2023-05-10T03:06:24;9.07;;;6.63;;
57746;SDS011;43580;44.014;20.466;2023-05-10T03:08:50;14.13;;;8.07;;
57746;SDS011;43580;44.014;20.466;2023-05-10T03:17:19;11.27;;;7.68;;
57746;SDS011;43580;44.014;20.466;2023-05-10T03:19:30;11.23;;;7.68;;
57746;SDS011;43580;44.014;20.466;2023-05-10T03:21:59;14.30;;;7.30;;
57746;SDS011;43580;44.014;20.466;2023-05-10T03:24:25;10.73;;;7.53;;
57746;SDS011;43580;44.014;20.466;2023-05-10T03:26:53;14.35;;;9.25;;
57746;SDS011;43580;44.014;20.466;2023-05-10T03:29:24;10.35;;;7.38;;
57746;SDS011;43580;44.014;20.466;2023-05-10T03:31:53;13.50;;;8.00;;
57746;SDS011;43580;44.014;20.466;2023-05-10T03:34:23;11.52;;;7.80;;
57746;SDS011;43580;44.014;20.466;2023-05-10T03:36:49;10.18;;;6.70;;
57746;SDS011;43580;44.014;20.466;2023-05-10T03:39:22;11.90;;;7.63;;
57746;SDS011;43580;44.014;20.466;2023-05-10T03:41:49;12.43;;;7.65;;
57746;SDS011;43580;44.014;20.466;2023-05-10T03:44:15;12.27;;;7.85;;
57746;SDS011;43580;44.014;20.466;2023-05-10T03:46:41;10.50;;;7.20;;
57746;SDS011;43580;44.014;20.466;2023-05-10T03:49:10;19.90;;;10.15;;
57746;SDS011;43580;44.014;20.466;2023-05-10T03:51:36;11.50;;;8.25;;
57746;SDS011;43580;44.014;20.466;2023-05-10T03:54:03;14.27;;;7.68;;
57746;SDS011;43580;44.014;20.466;2023-05-10T03:56:29;12.88;;;10.38;;
57746;SDS011;43580;44.014;20.466;2023-05-10T03:58:55;21.17;;;13.98;;
57746;SDS011;43580;44.014;20.466;2023-05-10T04:01:21;12.38;;;8.52;;
57746;SDS011;43580;44.014;20.466;2023-05-10T04:03:47;17.15;;;10.93;;
57746;SDS011;43580;44.014;20.466;2023-05-10T04:06:13;14.40;;;8.60;;
57746;SDS011;43580;44.014;20.466;2023-05-10T04:08:39;17.20;;;9.60;;
57746;SDS011;43580;44.014;20.466;2023-05-10T04:11:06;18.17;;;8.80;;
57746;SDS011;43580;44.014;20.466;2023-05-10T04:13:32;12.38;;;7.80;;
57746;SDS011;43580;44.014;20.466;2023-05-10T04:15:58;16.65;;;9.57;;
57746;SDS011;43580;44.014;20.466;2023-05-10T04:18:25;45.65;;;18.58;;
57746;SDS011;43580;44.014;20.466;2023-05-10T04:20:51;23.40;;;10.20;;
57746;SDS011;43580;44.014;20.466;2023-05-10T04:23:19;17.60;;;10.32;;
57746;SDS011;43580;44.014;20.466;2023-05-10T04:25:45;14.35;;;8.48;;
57746;SDS011;43580;44.014;20.466;2023-05-10T04:28:11;12.77;;;7.40;;
57746;SDS011;43580;44.014;20.466;2023-05-10T04:30:37;37.40;;;18.00;;
57746;SDS011;43580;44.014;20.466;2023-05-10T04:33:06;34.13;;;15.55;;
57746;SDS011;43580;44.014;20.466;2023-05-10T04:35:35;26.98;;;12.30;;
57746;SDS011;43580;44.014;20.466;2023-05-10T04:38:01;11.27;;;7.72;;
57746;SDS011;43580;44.014;20.466;2023-05-10T04:40:27;11.13;;;7.10;;
57746;SDS011;43580;44.014;20.466;2023-05-10T04:42:53;11.88;;;4.88;;
57746;SDS011;43580;44.014;20.466;2023-05-10T04:45:19;19.45;;;9.70;;
57746;SDS011;43580;44.014;20.466;2023-05-10T04:47:45;16.33;;;8.55;;
57746;SDS011;43580;44.014;20.466;2023-05-10T04:50:11;10.05;;;4.90;;
57746;SDS011;43580;44.014;20.466;2023-05-10T04:52:37;30.67;;;17.27;;
57746;SDS011;43580;44.014;20.466;2023-05-10T04:55:03;71.75;;;34.72;;
57746;SDS011;43580;44.014;20.466;2023-05-10T04:57:29;34.72;;;18.65;;
57746;SDS011;43580;44.014;20.466;2023-05-10T04:59:55;31.52;;;14.48;;
57746;SDS011;43580;44.014;20.466;2023-05-10T05:02:21;5.75;;;3.65;;
57746;SDS011;43580;44.014;20.466;2023-05-10T05:04:48;4.35;;;2.70;;
57746;SDS011;43580;44.014;20.466;2023-05-10T05:07:14;7.20;;;3.03;;
57746;SDS011;43580;44.014;20.466;2023-05-10T05:09:40;4.35;;;2.70;;
57746;SDS011;43580;44.014;20.466;2023-05-10T05:12:06;7.35;;;2.83;;
57746;SDS011;43580;44.014;20.466;2023-05-10T05:14:32;4.05;;;2.40;;
57746;SDS011;43580;44.014;20.466;2023-05-10T05:16:58;4.38;;;2.45;;
57746;SDS011;43580;44.014;20.466;2023-05-10T05:19:25;6.53;;;3.80;;
57746;SDS011;43580;44.014;20.466;2023-05-10T05:21:51;4.05;;;2.58;;
57746;SDS011;43580;44.014;20.466;2023-05-10T05:24:17;4.60;;;3.05;;
57746;SDS011;43580;44.014;20.466;2023-05-10T05:26:43;5.45;;;3.90;;
57746;SDS011;43580;44.014;20.466;2023-05-10T05:29:09;5.10;;;2.58;;
57746;SDS011;43580;44.014;20.466;2023-05-10T05:31:35;4.25;;;2.60;;
57746;SDS011;43580;44.014;20.466;2023-05-10T05:34:01;5.22;;;2.70;;
57746;SDS011;43580;44.014;20.466;2023-05-10T05:36:27;7.45;;;3.90;;
57746;SDS011;43580;44.014;20.466;2023-05-10T05:38:53;5.47;;;2.38;;
57746;SDS011;43580;44.014;20.466;2023-05-10T05:41:19;5.15;;;3.40;;
57746;SDS011;43580;44.014;20.466;2023-05-10T05:43:46;3.70;;;2.70;;
57746;SDS011;43580;44.014;20.466;2023-05-10T05:46:12;6.10;;;3.92;;
57746;SDS011;43580;44.014;20.466;2023-05-10T05:48:38;4.88;;;2.88;;
57746;SDS011;43580;44.014;20.466;2023-05-10T05:51:04;4.95;;;2.92;;
57746;SDS011;43580;44.014;20.466;2023-05-10T05:53:30;6.28;;;3.00;;
57746;SDS011;43580;44.014;20.466;2023-05-10T05:55:57;5.10;;;2.30;;
57746;SDS011;43580;44.014;20.466;2023-05-10T05:58:26;4.13;;;2.60;;
57746;SDS011;43580;44.014;20.466;2023-05-10T06:00:54;5.45;;;2.80;;
57746;SDS011;43580;44.014;20.466;2023-05-10T06:03:21;5.00;;;2.22;;
57746;SDS011;43580;44.014;20.466;2023-05-10T06:05:47;3.38;;;2.40;;
57746;SDS011;43580;44.014;20.466;2023-05-10T06:08:13;3.50;;;2.60;;
57746;SDS011;43580;44.014;20.466;2023-05-10T06:10:39;3.20;;;2.15;;
57746;SDS011;43580;44.014;20.466;2023-05-10T06:13:08;3.53;;;2.33;;
57746;SDS011;43580;44.014;20.466;2023-05-10T06:15:34;3.92;;;2.10;;
57746;SDS011;43580;44.014;20.466;2023-05-10T06:18:00;4.10;;;1.80;;
57746;SDS011;43580;44.014;20.466;2023-05-10T06:20:27;2.63;;;2.00;;
57746;SDS011;43580;44.014;20.466;2023-05-10T06:22:53;3.78;;;2.53;;
57746;SDS011;43580;44.014;20.466;2023-05-10T06:25:19;4.85;;;2.08;;
57746;SDS011;43580;44.014;20.466;2023-05-10T06:27:45;4.82;;;1.90;;
57746;SDS011;43580;44.014;20.466;2023-05-10T06:30:11;3.30;;;2.25;;
57746;SDS011;43580;44.014;20.466;2023-05-10T06:32:39;2.70;;;2.00;;
57746;SDS011;43580;44.014;20.466;2023-05-10T06:35:05;3.58;;;2.17;;
57746;SDS011;43580;44.014;20.466;2023-05-10T06:37:32;3.55;;;2.03;;
57746;SDS011;43580;44.014;20.466;2023-05-10T06:39:59;2.90;;;2.00;;
57746;SDS011;43580;44.014;20.466;2023-05-10T06:42:25;5.32;;;2.47;;
57746;SDS011;43580;44.014;20.466;2023-05-10T06:44:52;3.10;;;2.13;;
57746;SDS011;43580;44.014;20.466;2023-05-10T06:47:18;3.70;;;2.25;;
57746;SDS011;43580;44.014;20.466;2023-05-10T06:49:44;3.60;;;2.28;;
57746;SDS011;43580;44.014;20.466;2023-05-10T06:52:10;5.65;;;3.58;;
57746;SDS011;43580;44.014;20.466;2023-05-10T06:54:36;5.07;;;2.70;;
57746;SDS011;43580;44.014;20.466;2023-05-10T06:57:02;3.30;;;2.10;;
57746;SDS011;43580;44.014;20.466;2023-05-10T06:59:28;3.40;;;2.40;;
57746;SDS011;43580;44.014;20.466;2023-05-10T07:01:55;16.50;;;9.35;;
57746;SDS011;43580;44.014;20.466;2023-05-10T07:04:21;5.93;;;3.28;;
57746;SDS011;43580;44.014;20.466;2023-05-10T07:06:47;6.35;;;4.28;;
57746;SDS011;43580;44.014;20.466;2023-05-10T07:09:14;7.32;;;4.20;;
57746;SDS011;43580;44.014;20.466;2023-05-10T07:11:40;8.30;;;5.53;;
57746;SDS011;43580;44.014;20.466;2023-05-10T07:14:06;7.85;;;4.55;;
57746;SDS011;43580;44.014;20.466;2023-05-10T07:16:32;4.93;;;3.33;;
57746;SDS011;43580;44.014;20.466;2023-05-10T07:18:59;2.58;;;1.67;;
57746;SDS011;43580;44.014;20.466;2023-05-10T07:21:25;14.27;;;9.88;;
57746;SDS011;43580;44.014;20.466;2023-05-10T07:23:53;12.15;;;6.43;;
57746;SDS011;43580;44.014;20.466;2023-05-10T07:26:25;2.63;;;1.80;;
57746;SDS011;43580;44.014;20.466;2023-05-10T07:28:51;3.42;;;2.30;;
57746;SDS011;43580;44.014;20.466;2023-05-10T07:31:17;3.55;;;2.03;;
57746;SDS011;43580;44.014;20.466;2023-05-10T07:33:43;3.15;;;1.88;;
57746;SDS011;43580;44.014;20.466;2023-05-10T07:36:09;2.67;;;1.88;;
57746;SDS011;43580;44.014;20.466;2023-05-10T07:38:35;4.72;;;2.05;;
57746;SDS011;43580;44.014;20.466;2023-05-10T07:41:01;2.15;;;1.60;;
57746;SDS011;43580;44.014;20.466;2023-05-10T07:43:27;3.72;;;1.70;;
57746;SDS011;43580;44.014;20.466;2023-05-10T07:45:53;3.90;;;2.05;;
57746;SDS011;43580;44.014;20.466;2023-05-10T07:48:19;4.07;;;1.90;;
57746;SDS011;43580;44.014;20.466;2023-05-10T07:50:45;3.33;;;1.98;;
57746;SDS011;43580;44.014;20.466;2023-05-10T07:53:11;2.38;;;1.60;;
57746;SDS011;43580;44.014;20.466;2023-05-10T07:55:37;8.20;;;3.35;;
57746;SDS011;43580;44.014;20.466;2023-05-10T07:58:03;3.90;;;2.50;;
57746;SDS011;43580;44.014;20.466;2023-05-10T08:00:29;3.55;;;2.40;;
57746;SDS011;43580;44.014;20.466;2023-05-10T08:02:55;2.80;;;2.08;;
57746;SDS011;43580;44.014;20.466;2023-05-10T08:05:21;6.47;;;4.28;;
57746;SDS011;43580;44.014;20.466;2023-05-10T08:07:48;11.02;;;5.90;;
57746;SDS011;43580;44.014;20.466;2023-05-10T08:10:14;6.50;;;3.75;;
57746;SDS011;43580;44.014;20.466;2023-05-10T08:12:40;8.80;;;5.03;;
57746;SDS011;43580;44.014;20.466;2023-05-10T08:15:06;4.03;;;2.80;;
57746;SDS011;43580;44.014;20.466;2023-05-10T08:17:32;4.80;;;2.72;;
57746;SDS011;43580;44.014;20.466;2023-05-10T08:20:00;4.32;;;2.20;;
57746;SDS011;43580;44.014;20.466;2023-05-10T08:22:27;2.60;;;1.85;;
57746;SDS011;43580;44.014;20.466;2023-05-10T08:24:53;3.30;;;2.50;;
57746;SDS011;43580;44.014;20.466;2023-05-10T08:27:19;5.93;;;3.33;;
57746;SDS011;43580;44.014;20.466;2023-05-10T08:29:45;8.73;;;5.15;;
57746;SDS011;43580;44.014;20.466;2023-05-10T08:32:11;6.72;;;4.85;;
57746;SDS011;43580;44.014;20.466;2023-05-10T08:34:37;5.63;;;3.20;;
57746;SDS011;43580;44.014;20.466;2023-05-10T08:37:03;5.82;;;3.45;;
57746;SDS011;43580;44.014;20.466;2023-05-10T08:39:29;9.02;;;5.28;;
57746;SDS011;43580;44.014;20.466;2023-05-10T08:41:58;5.78;;;3.67;;
57746;SDS011;43580;44.014;20.466;2023-05-10T08:44:27;4.72;;;2.33;;
57746;SDS011;43580;44.014;20.466;2023-05-10T08:46:53;4.30;;;2.90;;
57746;SDS011;43580;44.014;20.466;2023-05-10T08:49:20;3.67;;;2.40;;
57746;SDS011;43580;44.014;20.466;2023-05-10T08:51:50;5.38;;;2.40;;
57746;SDS011;43580;44.014;20.466;2023-05-10T08:54:19;5.57;;;3.00;;
57746;SDS011;43580;44.014;20.466;2023-05-10T08:56:49;4.78;;;2.78;;
57746;SDS011;43580;44.014;20.466;2023-05-10T08:59:15;6.35;;;2.90;;
57746;SDS011;43580;44.014;20.466;2023-05-10T09:01:42;8.35;;;3.65;;
57746;SDS011;43580;44.014;20.466;2023-05-10T09:04:12;3.97;;;2.80;;
57746;SDS011;43580;44.014;20.466;2023-05-10T09:06:38;6.13;;;3.90;;
57746;SDS011;43580;44.014;20.466;2023-05-10T09:09:04;11.75;;;5.45;;
57746;SDS011;43580;44.014;20.466;2023-05-10T09:11:30;6.13;;;3.38;;
57746;SDS011;43580;44.014;20.466;2023-05-10T09:13:57;4.22;;;2.30;;
57746;SDS011;43580;44.014;20.466;2023-05-10T09:16:23;12.50;;;5.60;;
57746;SDS011;43580;44.014;20.466;2023-05-10T09:18:49;8.48;;;4.38;;
57746;SDS011;43580;44.014;20.466;2023-05-10T09:21:15;4.60;;;2.92;;
57746;SDS011;43580;44.014;20.466;2023-05-10T09:23:45;21.95;;;6.68;;
57746;SDS011;43580;44.014;20.466;2023-05-10T09:26:11;2.95;;;2.10;;
57746;SDS011;43580;44.014;20.466;2023-05-10T09:31:22;7.25;;;4.70;;
57746;SDS011;43580;44.014;20.466;2023-05-10T09:33:50;5.18;;;2.33;;
57746;SDS011;43580;44.014;20.466;2023-05-10T09:36:19;3.35;;;2.10;;
57746;SDS011;43580;44.014;20.466;2023-05-10T09:38:48;3.10;;;2.10;;
57746;SDS011;43580;44.014;20.466;2023-05-10T09:41:19;5.07;;;2.38;;
57746;SDS011;43580;44.014;20.466;2023-05-10T09:43:45;15.77;;;4.88;;
57746;SDS011;43580;44.014;20.466;2023-05-10T09:46:11;11.30;;;3.60;;
57746;SDS011;43580;44.014;20.466;2023-05-10T09:48:55;7.13;;;4.97;;
57746;SDS011;43580;44.014;20.466;2023-05-10T09:51:22;5.32;;;3.80;;
57746;SDS011;43580;44.014;20.466;2023-05-10T09:53:50;4.25;;;2.97;;
57746;SDS011;43580;44.014;20.466;2023-05-10T09:56:36;5.55;;;4.22;;
57746;SDS011;43580;44.014;20.466;2023-05-10T09:59:05;6.53;;;4.82;;
57746;SDS011;43580;44.014;20.466;2023-05-10T10:01:31;7.90;;;5.13;;
57746;SDS011;43580;44.014;20.466;2023-05-10T10:03:57;18.10;;;8.90;;
57746;SDS011;43580;44.014;20.466;2023-05-10T10:06:24;7.03;;;3.80;;
57746;SDS011;43580;44.014;20.466;2023-05-10T10:08:50;4.80;;;2.90;;
57746;SDS011;43580;44.014;20.466;2023-05-10T10:11:26;4.43;;;2.90;;
57746;SDS011;43580;44.014;20.466;2023-05-10T10:13:57;4.38;;;2.75;;
57746;SDS011;43580;44.014;20.466;2023-05-10T10:16:24;3.63;;;2.40;;
57746;SDS011;43580;44.014;20.466;2023-05-10T10:18:50;4.95;;;3.15;;
57746;SDS011;43580;44.014;20.466;2023-05-10T10:21:16;3.33;;;2.40;;
57746;SDS011;43580;44.014;20.466;2023-05-10T10:23:42;4.15;;;2.88;;
57746;SDS011;43580;44.014;20.466;2023-05-10T10:26:09;3.47;;;2.30;;
57746;SDS011;43580;44.014;20.466;2023-05-10T10:28:56;3.67;;;2.25;;
57746;SDS011;43580;44.014;20.466;2023-05-10T10:33:55;3.72;;;2.65;;
57746;SDS011;43580;44.014;20.466;2023-05-10T10:36:25;5.63;;;2.83;;
57746;SDS011;43580;44.014;20.466;2023-05-10T10:38:55;11.60;;;9.85;;
57746;SDS011;43580;44.014;20.466;2023-05-10T10:49:08;5.53;;;3.63;;
57746;SDS011;43580;44.014;20.466;2023-05-10T10:51:38;4.75;;;3.53;;
57746;SDS011;43580;44.014;20.466;2023-05-10T10:54:10;9.30;;;3.22;;
57746;SDS011;43580;44.014;20.466;2023-05-10T10:56:36;4.82;;;3.05;;
57746;SDS011;43580;44.014;20.466;2023-05-10T10:59:02;3.42;;;2.53;;
57746;SDS011;43580;44.014;20.466;2023-05-10T11:01:32;3.47;;;2.55;;
57746;SDS011;43580;44.014;20.466;2023-05-10T11:06:28;6.38;;;2.40;;
57746;SDS011;43580;44.014;20.466;2023-05-10T11:08:56;5.35;;;3.05;;
57746;SDS011;43580;44.014;20.466;2023-05-10T11:11:22;4.28;;;2.20;;
57746;SDS011;43580;44.014;20.466;2023-05-10T11:13:49;3.35;;;2.15;;
57746;SDS011;43580;44.014;20.466;2023-05-10T11:16:22;5.80;;;2.72;;
57746;SDS011;43580;44.014;20.466;2023-05-10T11:19:05;13.32;;;4.05;;
57746;SDS011;43580;44.014;20.466;2023-05-10T11:21:33;5.88;;;2.90;;
57746;SDS011;43580;44.014;20.466;2023-05-10T11:23:59;7.35;;;3.25;;
57746;SDS011;43580;44.014;20.466;2023-05-10T11:26:30;12.90;;;4.45;;
57746;SDS011;43580;44.014;20.466;2023-05-10T11:28:57;9.13;;;4.55;;
57746;SDS011;43580;44.014;20.466;2023-05-10T11:31:27;2.88;;;2.20;;
57746;SDS011;43580;44.014;20.466;2023-05-10T11:33:54;3.55;;;2.22;;
57746;SDS011;43580;44.014;20.466;2023-05-10T11:36:21;10.23;;;2.50;;
57746;SDS011;43580;44.014;20.466;2023-05-10T11:38:48;3.70;;;2.30;;
57746;SDS011;43580;44.014;20.466;2023-05-10T11:41:15;3.92;;;2.60;;
57746;SDS011;43580;44.014;20.466;2023-05-10T11:43:42;6.32;;;3.60;;
57746;SDS011;43580;44.014;20.466;2023-05-10T11:46:11;10.35;;;3.55;;
57746;SDS011;43580;44.014;20.466;2023-05-10T11:48:41;4.40;;;2.72;;
57746;SDS011;43580;44.014;20.466;2023-05-10T11:51:07;4.50;;;2.17;;
57746;SDS011;43580;44.014;20.466;2023-05-10T11:53:33;3.72;;;2.72;;
57746;SDS011;43580;44.014;20.466;2023-05-10T11:56:09;4.82;;;2.80;;
57746;SDS011;43580;44.014;20.466;2023-05-10T11:58:36;6.20;;;3.33;;
57746;SDS011;43580;44.014;20.466;2023-05-10T12:01:03;6.15;;;4.13;;
57746;SDS011;43580;44.014;20.466;2023-05-10T12:03:30;8.95;;;4.35;;
57746;SDS011;43580;44.014;20.466;2023-05-10T12:05:56;4.15;;;2.83;;
57746;SDS011;43580;44.014;20.466;2023-05-10T12:08:24;3.58;;;2.60;;
57746;SDS011;43580;44.014;20.466;2023-05-10T12:10:53;6.20;;;4.50;;
57746;SDS011;43580;44.014;20.466;2023-05-10T12:13:20;4.75;;;2.80;;
57746;SDS011;43580;44.014;20.466;2023-05-10T12:15:46;9.63;;;3.15;;
57746;SDS011;43580;44.014;20.466;2023-05-10T12:18:14;8.68;;;6.05;;
57746;SDS011;43580;44.014;20.466;2023-05-10T12:20:53;4.57;;;2.70;;
57746;SDS011;43580;44.014;20.466;2023-05-10T12:23:19;5.40;;;2.80;;
57746;SDS011;43580;44.014;20.466;2023-05-10T12:25:46;6.22;;;4.05;;
57746;SDS011;43580;44.014;20.466;2023-05-10T12:28:12;3.70;;;2.67;;
57746;SDS011;43580;44.014;20.466;2023-05-10T12:30:38;8.52;;;3.70;;
57746;SDS011;43580;44.014;20.466;2023-05-10T12:33:11;4.65;;;3.03;;
57746;SDS011;43580;44.014;20.466;2023-05-10T12:35:48;4.72;;;3.00;;
57746;SDS011;43580;44.014;20.466;2023-05-10T12:40:54;3.70;;;2.70;;
57746;SDS011;43580;44.014;20.466;2023-05-10T12:43:20;4.28;;;3.03;;
57746;SDS011;43580;44.014;20.466;2023-05-10T12:45:46;5.00;;;3.45;;
57746;SDS011;43580;44.014;20.466;2023-05-10T12:48:14;5.75;;;2.88;;
57746;SDS011;43580;44.014;20.466;2023-05-10T12:50:40;6.28;;;3.53;;
57746;SDS011;43580;44.014;20.466;2023-05-10T12:53:06;6.20;;;3.97;;
57746;SDS011;43580;44.014;20.466;2023-05-10T12:55:32;5.32;;;3.20;;
57746;SDS011;43580;44.014;20.466;2023-05-10T12:57:58;7.32;;;3.60;;
57746;SDS011;43580;44.014;20.466;2023-05-10T13:00:24;8.82;;;4.35;;
57746;SDS011;43580;44.014;20.466;2023-05-10T13:02:50;9.48;;;4.55;;
57746;SDS011;43580;44.014;20.466;2023-05-10T13:05:16;9.35;;;3.70;;
57746;SDS011;43580;44.014;20.466;2023-05-10T13:07:42;6.03;;;3.35;;
57746;SDS011;43580;44.014;20.466;2023-05-10T13:10:09;7.80;;;3.90;;
57746;SDS011;43580;44.014;20.466;2023-05-10T13:12:35;6.60;;;4.18;;
57746;SDS011;43580;44.014;20.466;2023-05-10T13:15:01;6.78;;;3.03;;
57746;SDS011;43580;44.014;20.466;2023-05-10T13:17:28;4.05;;;2.83;;
57746;SDS011;43580;44.014;20.466;2023-05-10T13:19:54;15.30;;;9.38;;
57746;SDS011;43580;44.014;20.466;2023-05-10T13:22:20;6.95;;;4.05;;
57746;SDS011;43580;44.014;20.466;2023-05-10T13:24:46;11.27;;;5.90;;
57746;SDS011;43580;44.014;20.466;2023-05-10T13:27:12;6.32;;;4.20;;
57746;SDS011;43580;44.014;20.466;2023-05-10T13:29:38;7.05;;;5.30;;
57746;SDS011;43580;44.014;20.466;2023-05-10T13:32:04;7.38;;;4.95;;
57746;SDS011;43580;44.014;20.466;2023-05-10T13:34:30;4.50;;;3.20;;
57746;SDS011;43580;44.014;20.466;2023-05-10T13:36:56;6.25;;;3.40;;
57746;SDS011;43580;44.014;20.466;2023-05-10T13:39:23;8.90;;;4.20;;
57746;SDS011;43580;44.014;20.466;2023-05-10T13:41:49;4.57;;;3.42;;
57746;SDS011;43580;44.014;20.466;2023-05-10T13:44:16;6.38;;;3.15;;
57746;SDS011;43580;44.014;20.466;2023-05-10T13:46:42;5.88;;;3.60;;
57746;SDS011;43580;44.014;20.466;2023-05-10T13:49:11;6.20;;;3.25;;
57746;SDS011;43580;44.014;20.466;2023-05-10T13:51:37;6.93;;;4.20;;
57746;SDS011;43580;44.014;20.466;2023-05-10T13:54:03;12.38;;;4.07;;
57746;SDS011;43580;44.014;20.466;2023-05-10T13:56:29;4.10;;;3.10;;
57746;SDS011;43580;44.014;20.466;2023-05-10T13:58:56;5.07;;;3.10;;
57746;SDS011;43580;44.014;20.466;2023-05-10T14:01:23;5.60;;;3.90;;
57746;SDS011;43580;44.014;20.466;2023-05-10T14:03:49;6.35;;;3.42;;
57746;SDS011;43580;44.014;20.466;2023-05-10T14:06:15;6.00;;;3.78;;
57746;SDS011;43580;44.014;20.466;2023-05-10T14:08:41;11.60;;;3.60;;
57746;SDS011;43580;44.014;20.466;2023-05-10T14:11:07;6.45;;;3.53;;
57746;SDS011;43580;44.014;20.466;2023-05-10T14:13:33;7.25;;;4.20;;
57746;SDS011;43580;44.014;20.466;2023-05-10T14:15:59;7.55;;;4.68;;
57746;SDS011;43580;44.014;20.466;2023-05-10T14:18:26;7.68;;;4.10;;
57746;SDS011;43580;44.014;20.466;2023-05-10T14:20:53;4.50;;;3.08;;
57746;SDS011;43580;44.014;20.466;2023-05-10T14:23:20;4.15;;;2.75;;
57746;SDS011;43580;44.014;20.466;2023-05-10T14:25:49;5.32;;;3.33;;
57746;SDS011;43580;44.014;20.466;2023-05-10T14:28:15;8.15;;;4.32;;
57746;SDS011;43580;44.014;20.466;2023-05-10T14:30:42;7.53;;;3.50;;
57746;SDS011;43580;44.014;20.466;2023-05-10T14:33:09;4.63;;;3.17;;
57746;SDS011;43580;44.014;20.466;2023-05-10T14:35:36;5.05;;;4.18;;
57746;SDS011;43580;44.014;20.466;2023-05-10T14:38:02;5.43;;;3.70;;
57746;SDS011;43580;44.014;20.466;2023-05-10T14:40:29;6.35;;;4.88;;
57746;SDS011;43580;44.014;20.466;2023-05-10T14:42:55;6.47;;;5.28;;
57746;SDS011;43580;44.014;20.466;2023-05-10T14:45:21;5.10;;;3.55;;
57746;SDS011;43580;44.014;20.466;2023-05-10T14:47:48;6.82;;;4.05;;
57746;SDS011;43580;44.014;20.466;2023-05-10T14:50:14;7.05;;;3.40;;
57746;SDS011;43580;44.014;20.466;2023-05-10T14:52:41;8.38;;;4.38;;
57746;SDS011;43580;44.014;20.466;2023-05-10T14:55:07;10.40;;;4.97;;
57746;SDS011;43580;44.014;20.466;2023-05-10T14:57:33;11.55;;;4.32;;
57746;SDS011;43580;44.014;20.466;2023-05-10T15:00:02;11.77;;;4.97;;
57746;SDS011;43580;44.014;20.466;2023-05-10T15:02:30;8.00;;;4.00;;
57746;SDS011;43580;44.014;20.466;2023-05-10T15:04:56;7.63;;;4.43;;
57746;SDS011;43580;44.014;20.466;2023-05-10T15:07:22;4.53;;;3.80;;
57746;SDS011;43580;44.014;20.466;2023-05-10T15:09:49;17.42;;;4.88;;
57746;SDS011;43580;44.014;20.466;2023-05-10T15:12:16;6.05;;;4.00;;